Time;durP1;ratioP1;P1;durP2;ratioP2;P2;SDS_P1;SDS_P2;PMS_P1;PMS_P2;Temp;Humidity;BMP_temperature;BMP_pressure;BME280_temperature;BME280_humidity;BME280_pressure;Samples;Min_cycle;Max_cycle;Signal;HPM_P1;HPM_P2
2021/04/14 00:00:48;;;;;;;1.58;0.80;;;;;;;14.22;46.35;95001.75;5990037;23;20004;-67
2021/04/14 00:03:19;;;;;;;1.55;0.85;;;;;;;14.22;46.94;95003.59;6012251;23;20098;-67
2021/04/14 00:06:01;;;;;;;1.25;0.80;;;;;;;14.22;46.62;94993.88;5989749;23;20003;-66
2021/04/14 00:08:30;;;;;;;1.00;0.77;;;;;;;14.22;46.72;94991.25;6013472;23;20015;-67
2021/04/14 00:10:55;;;;;;;1.50;0.65;;;;;;;14.22;46.78;94985.97;6036356;23;20361;-66
2021/04/14 00:13:24;;;;;;;0.60;0.60;;;;;;;14.22;46.44;94982.53;5989186;23;20015;-67
2021/04/14 00:15:58;;;;;;;1.20;0.77;;;;;;;14.22;46.65;94982.53;5990014;23;20010;-67
2021/04/14 00:18:23;;;;;;;0.82;0.70;;;;;;;14.22;46.82;94980.72;5990227;23;20035;-67
2021/04/14 00:21:01;;;;;;;1.33;0.90;;;;;;;14.23;46.69;94973.66;5989871;23;20135;-67
2021/04/14 00:23:26;;;;;;;0.63;0.52;;;;;;;14.22;46.75;94978.09;6013000;23;20324;-67
2021/04/14 00:25:52;;;;;;;0.57;0.47;;;;;;;14.21;46.50;94973.00;5989783;23;20023;-67
2021/04/14 00:28:20;;;;;;;1.23;0.60;;;;;;;14.22;46.27;94972.00;5989024;23;20816;-67
2021/04/14 00:30:47;;;;;;;2.22;0.88;;;;;;;14.22;46.64;94972.00;6013137;23;20007;-67
2021/04/14 00:33:13;;;;;;;1.73;0.63;;;;;;;14.22;46.56;94969.38;6013039;23;20015;-66
2021/04/14 00:35:39;;;;;;;0.70;0.55;;;;;;;14.21;46.30;94971.19;6013341;23;20374;-66
2021/04/14 00:38:05;;;;;;;3.10;1.00;;;;;;;14.22;46.46;94967.56;6057322;23;20016;-67
2021/04/14 00:40:33;;;;;;;1.35;0.57;;;;;;;14.22;46.38;94964.09;6129655;23;20060;-67
2021/04/14 00:43:00;;;;;;;0.73;0.60;;;;;;;14.20;46.34;94959.03;6153593;23;20011;-67
2021/04/14 00:45:26;;;;;;;2.35;1.00;;;;;;;14.21;46.36;94959.84;6104680;23;20027;-67
2021/04/14 00:47:52;;;;;;;1.52;0.80;;;;;;;14.21;46.78;94955.41;6129631;23;20067;-67
2021/04/14 00:50:41;;;;;;;0.88;0.80;;;;;;;14.21;46.59;94947.50;6153549;23;20636;-67
2021/04/14 00:53:09;;;;;;;2.17;0.75;;;;;;;14.22;46.73;94950.94;6131460;23;20005;-67
2021/04/14 00:55:41;;;;;;;2.33;0.82;;;;;;;14.22;46.70;94949.13;6131718;23;20080;-66
2021/04/14 00:58:11;;;;;;;1.20;0.68;;;;;;;14.21;46.57;94944.03;6155992;23;20005;-67
2021/04/14 01:00:47;;;;;;;1.35;0.77;;;;;;;14.19;46.70;94947.66;6131935;23;20075;-67
2021/04/14 01:03:31;;;;;;;0.82;0.60;;;;;;;14.22;46.36;94938.59;6130964;23;20427;-67
2021/04/14 01:06:05;;;;;;;2.30;0.77;;;;;;;14.22;46.72;94937.78;6131743;23;20008;-67
2021/04/14 01:08:31;;;;;;;1.05;0.75;;;;;;;14.22;46.38;94935.16;6131422;23;20387;-67
2021/04/14 01:10:57;;;;;;;0.95;0.52;;;;;;;14.21;46.72;94930.88;6131252;23;20060;-67
2021/04/14 01:13:45;;;;;;;0.75;0.50;;;;;;;14.19;46.46;94926.59;6106727;23;20423;-67
2021/04/14 01:16:10;;;;;;;1.70;0.88;;;;;;;14.21;46.23;94928.25;6107366;23;20013;-67
2021/04/14 01:18:51;;;;;;;1.45;0.60;;;;;;;14.20;46.37;94930.06;6106390;23;20415;-67
2021/04/14 01:21:22;;;;;;;0.65;0.60;;;;;;;14.20;46.63;94927.44;6106283;23;20013;-67
2021/04/14 01:23:53;;;;;;;0.60;0.60;;;;;;;14.22;46.40;94919.38;6131137;23;19997;-67
2021/04/14 01:26:18;;;;;;;0.88;0.82;;;;;;;14.20;46.39;94914.28;6106647;23;20041;-67
2021/04/14 01:28:47;;;;;;;0.77;0.73;;;;;;;14.21;46.43;94915.94;6106287;23;20005;-67
2021/04/14 01:31:16;;;;;;;1.13;0.55;;;;;;;14.20;46.37;94922.19;6130924;23;20084;-67
2021/04/14 01:33:43;;;;;;;1.20;0.70;;;;;;;14.21;46.44;94917.72;6130560;23;20006;-67
2021/04/14 01:36:09;;;;;;;1.15;0.75;;;;;;;14.21;46.39;94915.94;6155239;23;20009;-67
2021/04/14 01:38:35;;;;;;;1.23;0.73;;;;;;;14.20;46.48;94914.28;6130463;23;20008;-66
2021/04/14 01:41:00;;;;;;;0.40;0.40;;;;;;;14.19;46.35;94916.06;6106815;23;20016;-67
2021/04/14 01:43:29;;;;;;;0.57;0.57;;;;;;;14.19;46.37;94916.06;6130350;23;20468;-67
2021/04/14 01:45:59;;;;;;;0.57;0.50;;;;;;;14.21;46.33;94915.94;6130607;23;20069;-66
2021/04/14 01:48:31;;;;;;;0.52;0.52;;;;;;;14.20;46.62;94927.44;6130429;23;20270;-66
2021/04/14 01:51:00;;;;;;;1.08;0.73;;;;;;;14.21;46.60;94917.72;6130513;23;20056;-66
2021/04/14 01:53:27;;;;;;;0.80;0.80;;;;;;;14.20;46.39;94914.28;6106486;23;20010;-67
2021/04/14 01:55:55;;;;;;;0.68;0.68;;;;;;;14.19;46.32;94910.81;6105441;23;20033;-66
2021/04/14 01:58:29;;;;;;;0.23;0.23;;;;;;;14.20;46.66;94909.00;6130506;23;20357;-67
2021/04/14 02:01:12;;;;;;;1.50;0.75;;;;;;;14.19;46.65;94908.19;6156682;23;20259;-65
2021/04/14 02:03:44;;;;;;;0.40;0.40;;;;;;;14.20;46.38;94903.75;6105345;23;20006;-67
2021/04/14 02:06:12;;;;;;;0.68;0.68;;;;;;;14.19;46.72;94902.09;6105743;23;20025;-67
2021/04/14 02:08:38;;;;;;;1.15;0.80;;;;;;;14.21;46.10;94904.56;6130590;23;20065;-66
2021/04/14 02:11:06;;;;;;;0.40;0.40;;;;;;;14.19;46.38;94896.84;6105727;23;20037;-67
2021/04/14 02:13:58;;;;;;;0.97;0.73;;;;;;;14.20;46.37;94898.50;6130349;23;20020;-67
2021/04/14 02:16:40;;;;;;;0.45;0.45;;;;;;;14.19;46.51;94894.22;6014198;23;20044;-66
2021/04/14 02:19:16;;;;;;;0.73;0.50;;;;;;;14.19;46.46;94896.84;6013241;23;20007;-67
2021/04/14 02:21:52;;;;;;;0.50;0.50;;;;;;;14.19;46.32;94886.31;6037760;23;20011;-67
2021/04/14 02:24:17;;;;;;;1.52;0.75;;;;;;;14.19;46.52;94888.94;5990199;23;20010;-67
2021/04/14 02:26:43;;;;;;;0.70;0.70;;;;;;;14.19;46.36;94886.31;6013425;23;20011;-67
2021/04/14 02:29:08;;;;;;;0.60;0.60;;;;;;;14.19;46.35;94886.31;5990310;23;20093;-67
2021/04/14 02:31:35;;;;;;;0.60;0.60;;;;;;;14.19;46.43;94879.22;6013686;23;20417;-67
2021/04/14 02:34:13;;;;;;;0.75;0.70;;;;;;;14.19;46.29;94878.41;5990146;23;20003;-67
2021/04/14 02:36:39;;;;;;;0.60;0.55;;;;;;;14.18;46.60;94879.41;6037391;23;20011;-67
2021/04/14 02:39:04;;;;;;;1.23;0.70;;;;;;;14.19;46.37;94875.78;5990013;23;20034;-67
2021/04/14 02:41:30;;;;;;;0.98;0.70;;;;;;;14.19;46.41;94881.84;5990264;23;20011;-67
2021/04/14 02:44:04;;;;;;;0.90;0.70;;;;;;;14.19;46.49;94879.22;6036842;23;20273;-66
2021/04/14 02:46:32;;;;;;;1.40;0.60;;;;;;;14.19;46.80;94878.41;5990168;23;20015;-67
2021/04/14 02:48:58;;;;;;;1.25;0.70;;;;;;;14.19;46.59;94878.41;6013378;23;20011;-67
2021/04/14 02:51:24;;;;;;;1.27;0.63;;;;;;;14.19;46.67;94875.78;6012617;23;20019;-67
2021/04/14 02:53:54;;;;;;;1.27;0.40;;;;;;;14.19;46.38;94870.53;6091587;23;20010;-66
2021/04/14 02:56:29;;;;;;;1.02;0.63;;;;;;;14.19;46.41;94873.97;6106047;23;20442;-67
2021/04/14 02:58:56;;;;;;;0.50;0.50;;;;;;;14.19;46.63;94873.97;6105637;23;20418;-67
2021/04/14 03:01:21;;;;;;;0.60;0.60;;;;;;;14.19;46.34;94866.06;6130146;23;20006;-67
2021/04/14 03:04:18;;;;;;;1.17;0.70;;;;;;;14.19;46.52;94867.91;6129273;23;20025;-67
2021/04/14 03:06:44;;;;;;;0.63;0.63;;;;;;;14.19;46.70;94867.91;5990314;23;20317;-67
2021/04/14 03:09:13;;;;;;;1.67;0.90;;;;;;;14.20;46.63;94869.53;6013247;23;20015;-67
2021/04/14 03:11:38;;;;;;;0.77;0.60;;;;;;;14.18;46.46;94864.44;6013837;23;20019;-66
2021/04/14 03:14:05;;;;;;;0.77;0.52;;;;;;;14.21;46.60;94865.06;6036984;23;20008;-67
2021/04/14 03:16:31;;;;;;;0.80;0.70;;;;;;;14.20;46.41;94861.63;6013275;23;20038;-67
2021/04/14 03:18:58;;;;;;;0.88;0.57;;;;;;;14.20;46.10;94856.38;5989036;23;20015;-66
2021/04/14 03:21:26;;;;;;;0.55;0.55;;;;;;;14.19;46.51;94850.28;6037102;23;20086;-67
2021/04/14 03:23:52;;;;;;;1.30;0.63;;;;;;;14.20;46.70;94853.75;5989409;23;20361;-66
2021/04/14 03:26:19;;;;;;;0.65;0.65;;;;;;;14.19;46.78;94849.47;6037090;23;20010;-67
2021/04/14 03:28:46;;;;;;;0.80;0.80;;;;;;;14.18;46.58;94850.47;6037019;23;20034;-66
2021/04/14 03:31:11;;;;;;;0.45;0.45;;;;;;;14.19;46.44;94844.22;6013128;23;20019;-65
2021/04/14 03:33:49;;;;;;;0.43;0.43;;;;;;;14.18;46.74;94840.78;6013136;23;20018;-67
2021/04/14 03:36:14;;;;;;;0.60;0.60;;;;;;;14.18;46.58;94840.78;6013375;23;20470;-67
2021/04/14 03:38:39;;;;;;;1.05;0.50;;;;;;;14.18;46.54;94834.66;6013483;23;20130;-67
2021/04/14 03:41:07;;;;;;;0.57;0.57;;;;;;;14.19;46.31;94838.94;6013075;23;20015;-67
2021/04/14 03:43:35;;;;;;;0.85;0.63;;;;;;;14.19;46.32;94836.31;6078145;23;20088;-67
2021/04/14 03:46:02;;;;;;;0.70;0.60;;;;;;;14.19;46.51;94833.69;6129857;23;20339;-67
2021/04/14 03:48:28;;;;;;;1.30;0.75;;;;;;;14.18;46.71;94838.13;6105021;23;20080;-65
2021/04/14 03:50:54;;;;;;;0.85;0.65;;;;;;;14.17;46.37;94825.97;6154377;23;20016;-67
2021/04/14 03:53:25;;;;;;;0.85;0.60;;;;;;;14.17;46.37;94839.13;6105577;23;20071;-67
2021/04/14 03:55:58;;;;;;;0.82;0.60;;;;;;;14.18;46.51;94832.88;6152207;23;20439;-67
2021/04/14 03:58:54;;;;;;;0.50;0.50;;;;;;;14.18;46.35;94835.50;6153983;23;20012;-67
2021/04/14 04:01:44;;;;;;;0.60;0.52;;;;;;;14.19;46.09;94833.69;6013555;23;20011;-67
2021/04/14 04:04:10;;;;;;;0.57;0.47;;;;;;;14.18;46.26;94832.03;5955987;24;20244;-67
2021/04/14 04:06:35;;;;;;;0.55;0.50;;;;;;;14.18;46.39;94824.13;5911516;24;20017;-67
2021/04/14 04:09:11;;;;;;;0.50;0.50;;;;;;;14.17;46.14;94831.22;5933640;24;20481;-67
2021/04/14 04:11:39;;;;;;;0.52;0.50;;;;;;;14.18;46.11;94826.78;5933653;24;20065;-67
2021/04/14 04:14:13;;;;;;;0.57;0.57;;;;;;;14.18;46.55;94826.78;5956564;24;20042;-66
2021/04/14 04:16:49;;;;;;;0.60;0.50;;;;;;;14.18;46.42;94824.97;5934427;24;20095;-67
2021/04/14 04:19:23;;;;;;;0.68;0.65;;;;;;;14.18;46.50;94821.50;5956492;24;20012;-67
2021/04/14 04:22:01;;;;;;;0.82;0.60;;;;;;;14.18;46.50;94817.09;5980690;24;20016;-67
2021/04/14 04:24:26;;;;;;;0.63;0.60;;;;;;;14.17;46.58;94818.06;5955950;24;20004;-67
2021/04/14 04:26:54;;;;;;;0.70;0.60;;;;;;;14.17;46.67;94815.44;5933429;24;20023;-67
2021/04/14 04:29:48;;;;;;;0.50;0.50;;;;;;;14.18;46.42;94817.09;5958727;24;20506;-67
2021/04/14 04:32:15;;;;;;;0.60;0.60;;;;;;;14.18;46.66;94813.59;5981243;24;20016;-65
2021/04/14 04:34:42;;;;;;;0.60;0.60;;;;;;;14.18;46.51;94816.25;5958007;24;20019;-67
2021/04/14 04:37:08;;;;;;;0.57;0.57;;;;;;;14.18;46.11;94817.09;5941285;23;20563;-64
2021/04/14 04:39:33;;;;;;;0.50;0.50;;;;;;;14.18;46.50;94818.88;5960892;23;20026;-67
2021/04/14 04:42:01;;;;;;;0.47;0.47;;;;;;;14.17;46.53;94809.34;6033075;23;20014;-67
2021/04/14 04:44:26;;;;;;;0.55;0.55;;;;;;;14.17;46.34;94810.16;6047917;23;19998;-67
2021/04/14 04:46:52;;;;;;;0.57;0.50;;;;;;;14.17;46.21;94811.97;6070064;23;20018;-64
2021/04/14 04:49:19;;;;;;;0.50;0.50;;;;;;;14.17;46.17;94815.44;6069799;23;20070;-66
2021/04/14 04:51:45;;;;;;;0.60;0.60;;;;;;;14.17;46.51;94815.44;6070573;23;20352;-66
2021/04/14 04:54:41;;;;;;;0.82;0.50;;;;;;;14.18;46.33;94817.09;6070745;23;20101;-67
2021/04/14 04:57:23;;;;;;;0.52;0.43;;;;;;;14.17;46.43;94815.44;6009584;23;20036;-66
2021/04/14 04:59:49;;;;;;;0.40;0.40;;;;;;;14.18;46.24;94816.25;6033566;23;20417;-66
2021/04/14 05:02:15;;;;;;;0.52;0.47;;;;;;;14.18;46.72;94824.97;5963165;23;20044;-67
2021/04/14 05:04:41;;;;;;;0.57;0.57;;;;;;;14.17;46.47;94823.34;5962380;23;20015;-67
2021/04/14 05:07:07;;;;;;;0.50;0.45;;;;;;;14.18;46.39;94821.50;6008631;23;20008;-66
2021/04/14 05:09:42;;;;;;;0.43;0.43;;;;;;;14.18;46.25;94826.78;6010469;23;20547;-67
2021/04/14 05:12:08;;;;;;;0.52;0.52;;;;;;;14.18;46.29;94832.03;6065440;23;20010;-67
2021/04/14 05:14:33;;;;;;;0.85;0.52;;;;;;;14.18;46.18;94821.50;6018091;23;20003;-66
2021/04/14 05:16:59;;;;;;;0.60;0.45;;;;;;;14.17;46.25;94830.38;6017879;23;20023;-66
2021/04/14 05:19:24;;;;;;;0.50;0.50;;;;;;;14.18;46.46;94826.78;6041572;23;20261;-67
2021/04/14 05:21:54;;;;;;;0.50;0.50;;;;;;;14.18;46.59;94829.41;6018832;23;20010;-66
2021/04/14 05:24:19;;;;;;;0.73;0.73;;;;;;;14.17;46.38;94833.03;6066528;23;20390;-66
2021/04/14 05:26:57;;;;;;;0.68;0.50;;;;;;;14.17;46.60;94835.66;6017961;23;20014;-67
2021/04/14 05:29:32;;;;;;;0.57;0.57;;;;;;;14.17;46.21;94830.38;6018107;23;20011;-67
2021/04/14 05:31:59;;;;;;;1.23;0.60;;;;;;;14.16;46.27;94829.59;6039957;23;20096;-66
2021/04/14 05:34:27;;;;;;;0.60;0.60;;;;;;;14.18;46.11;94837.28;6121803;23;20009;-66
2021/04/14 05:36:53;;;;;;;0.50;0.47;;;;;;;14.18;46.15;94834.66;6155188;23;20067;-67
2021/04/14 05:39:19;;;;;;;0.65;0.65;;;;;;;14.17;46.00;94835.66;6153929;23;20433;-65
2021/04/14 05:41:44;;;;;;;0.45;0.45;;;;;;;14.17;46.45;94840.91;6129403;23;20001;-66
2021/04/14 05:44:10;;;;;;;0.95;0.60;;;;;;;14.17;46.31;94833.03;6154289;23;20363;-67
2021/04/14 05:47:02;;;;;;;0.70;0.50;;;;;;;14.17;46.34;94831.22;6130099;23;20443;-66
2021/04/14 05:49:28;;;;;;;0.80;0.65;;;;;;;14.17;46.39;94835.66;6013302;23;20098;-66
2021/04/14 05:51:58;;;;;;;0.50;0.50;;;;;;;14.18;46.38;94835.50;5986175;23;20011;-66
2021/04/14 05:54:24;;;;;;;0.80;0.68;;;;;;;14.18;46.29;94837.28;6013367;23;20004;-66
2021/04/14 05:56:50;;;;;;;0.57;0.57;;;;;;;14.17;46.23;94841.75;5990412;23;20015;-66
2021/04/14 05:59:45;;;;;;;0.70;0.70;;;;;;;14.17;46.45;94841.75;6037160;23;20441;-67
2021/04/14 06:02:42;;;;;;;0.57;0.50;;;;;;;14.18;46.09;94835.50;5956726;24;20016;-67
2021/04/14 06:05:25;;;;;;;0.40;0.40;;;;;;;14.16;46.60;94841.94;5879745;24;20427;-66
2021/04/14 06:07:51;;;;;;;0.50;0.50;;;;;;;14.14;46.76;94842.13;5902264;24;20107;-67
2021/04/14 06:10:22;;;;;;;0.70;0.70;;;;;;;14.13;46.83;94837.00;5901766;24;20316;-67
2021/04/14 06:12:58;;;;;;;0.40;0.40;;;;;;;14.13;46.55;94850.16;5879293;24;20013;-67
2021/04/14 06:15:31;;;;;;;0.65;0.57;;;;;;;14.13;46.36;94847.53;5925005;24;20013;-66
2021/04/14 06:18:06;;;;;;;0.90;0.47;;;;;;;14.13;46.39;94844.91;5879834;24;20013;-67
2021/04/14 06:20:33;;;;;;;0.55;0.55;;;;;;;14.12;46.22;94845.91;5879843;24;20044;-58
2021/04/14 06:23:10;;;;;;;0.60;0.60;;;;;;;14.23;45.90;94848.13;5880121;24;20915;-58
2021/04/14 06:28:58;;;;;;;0.60;0.60;;;;;;;14.20;45.80;94843.22;6018637;23;20011;-67
2021/04/14 06:31:25;;;;;;;3.10;1.00;;;;;;;14.18;46.45;94845.19;6012604;23;20102;-67
2021/04/14 06:33:57;;;;;;;1.13;0.90;;;;;;;14.16;46.41;94848.00;5989538;23;20015;-67
2021/04/14 06:36:22;;;;;;;1.00;0.90;;;;;;;14.15;46.20;94848.19;5989550;23;20015;-67
2021/04/14 06:38:51;;;;;;;1.02;0.70;;;;;;;14.15;46.48;94848.19;5989558;23;20473;-67
2021/04/14 06:44:19;;;;;;;0.88;0.60;;;;;;;14.13;46.68;94852.78;6124068;23;20017;-67
2021/04/14 06:46:59;;;;;;;0.50;0.50;;;;;;;14.12;46.32;94849.34;6123887;23;20006;-67
2021/04/14 06:49:36;;;;;;;0.65;0.60;;;;;;;14.13;46.19;94843.09;6123716;23;20485;-67
2021/04/14 06:52:38;;;;;;;1.13;0.98;;;;;;;14.14;46.24;94843.91;6076763;23;20009;-67
2021/04/14 06:55:13;;;;;;;0.43;0.43;;;;;;;14.14;46.38;94846.53;6099495;23;20096;-67
2021/04/14 06:57:40;;;;;;;0.75;0.70;;;;;;;14.14;46.03;94841.28;6076481;23;20044;-67
2021/04/14 07:00:29;;;;;;;0.77;0.77;;;;;;;14.14;46.13;94843.91;6050921;23;20454;-67
2021/04/14 07:03:12;;;;;;;0.70;0.55;;;;;;;14.14;46.41;94851.81;6097819;23;20006;-67
2021/04/14 07:05:45;;;;;;;0.60;0.60;;;;;;;14.14;46.27;94846.53;6074861;23;20009;-68
2021/04/14 07:08:19;;;;;;;0.40;0.40;;;;;;;14.14;46.26;94842.13;6099935;23;20020;-68
2021/04/14 07:10:47;;;;;;;0.90;0.90;;;;;;;14.15;46.27;94842.94;6100713;23;20006;-67
2021/04/14 07:13:13;;;;;;;0.57;0.55;;;;;;;14.13;46.26;94843.09;6052471;23;20316;-68
2021/04/14 07:15:38;;;;;;;0.50;0.50;;;;;;;14.14;46.26;94852.66;6052248;23;20052;-68
2021/04/14 07:18:09;;;;;;;0.60;0.57;;;;;;;14.14;46.19;94851.81;6051793;23;20057;-67
2021/04/14 07:21:02;;;;;;;1.27;0.80;;;;;;;14.13;46.10;94850.16;6132015;23;20016;-67
2021/04/14 07:23:41;;;;;;;1.50;0.70;;;;;;;14.13;45.88;94851.00;6155004;23;20355;-67
2021/04/14 07:26:11;;;;;;;2.15;0.60;;;;;;;14.13;46.05;94844.91;6106472;23;20001;-67
2021/04/14 07:28:51;;;;;;;0.90;0.50;;;;;;;14.13;45.96;94840.47;6106004;23;20691;-66
2021/04/14 07:31:34;;;;;;;0.55;0.55;;;;;;;14.15;46.03;94853.44;6153482;23;20010;-67
2021/04/14 07:34:29;;;;;;;0.55;0.55;;;;;;;14.14;45.96;94851.81;6153266;23;20037;-66
2021/04/14 07:37:25;;;;;;;0.70;0.68;;;;;;;14.13;45.93;94851.00;6103884;23;20016;-67
2021/04/14 07:40:11;;;;;;;0.65;0.60;;;;;;;14.27;45.55;94859.94;6106080;23;20014;-67
2021/04/14 07:42:48;;;;;;;1.98;0.60;;;;;;;14.23;45.54;94856.00;6154918;23;20005;-67
2021/04/14 07:45:39;;;;;;;1.17;0.77;;;;;;;14.19;45.56;94852.09;6129180;23;20080;-67
2021/04/14 07:48:27;;;;;;;1.00;0.70;;;;;;;14.17;45.48;94856.72;6128286;23;20005;-66
2021/04/14 07:50:58;;;;;;;0.77;0.70;;;;;;;14.16;46.16;94847.19;6129880;23;20008;-67
2021/04/14 07:53:37;;;;;;;0.63;0.52;;;;;;;14.15;45.67;94849.00;6105594;23;20009;-67
2021/04/14 07:56:16;;;;;;;0.77;0.60;;;;;;;14.22;45.29;94850.94;6104354;23;20322;-66
2021/04/14 07:58:42;;;;;;;;;;;;;;;14.20;45.63;94845.84;6106766;23;20311;-67
2021/04/14 08:01:17;;;;;;;0.82;0.55;;;;;;;14.19;46.00;94846.84;6129729;23;19945;-67
2021/04/14 08:03:42;;;;;;;0.88;0.60;;;;;;;14.18;45.79;94842.56;6155808;23;20009;-67
2021/04/14 08:06:28;;;;;;;0.50;0.50;;;;;;;14.17;45.91;94844.38;6106447;23;20009;-67
2021/04/14 08:09:08;;;;;;;0.90;0.63;;;;;;;14.15;45.82;94835.84;6132064;23;20016;-67
2021/04/14 08:11:34;;;;;;;0.60;0.60;;;;;;;14.16;46.10;94844.56;6106942;23;20005;-67
2021/04/14 08:14:10;;;;;;;1.20;0.60;;;;;;;14.16;45.67;94839.31;6083361;23;20009;-66
2021/04/14 08:16:36;;;;;;;0.60;0.60;;;;;;;14.16;45.69;94834.84;6156754;23;20001;-67
2021/04/14 08:19:34;;;;;;;0.55;0.50;;;;;;;14.16;45.98;94837.47;6127847;23;20016;-64
2021/04/14 08:22:13;;;;;;;1.13;0.93;;;;;;;14.15;45.85;94829.75;6106642;23;20002;-67
2021/04/14 08:24:47;;;;;;;0.63;0.63;;;;;;;14.14;45.61;94831.59;6156906;23;20001;-67
2021/04/14 08:27:35;;;;;;;0.50;0.50;;;;;;;14.15;46.21;94829.75;6156544;23;20006;-67
2021/04/14 08:30:16;;;;;;;0.68;0.68;;;;;;;14.15;46.00;94832.41;6156344;23;20016;-65
2021/04/14 08:33:04;;;;;;;0.50;0.50;;;;;;;14.14;46.12;94820.22;6131006;23;20028;-67
2021/04/14 08:35:31;;;;;;;0.40;0.40;;;;;;;14.14;46.16;94817.59;6081782;23;20079;-67
2021/04/14 08:38:13;;;;;;;0.60;0.60;;;;;;;14.14;46.08;94833.38;6106627;23;20017;-67
2021/04/14 08:40:48;;;;;;;0.40;0.40;;;;;;;14.14;46.08;94817.59;6106370;23;20001;-67
2021/04/14 08:43:39;;;;;;;0.50;0.50;;;;;;;14.14;45.81;94825.50;6130568;23;20002;-67
2021/04/14 08:46:16;;;;;;;1.05;0.70;;;;;;;14.14;45.68;94817.59;6106108;23;20002;-66
2021/04/14 08:49:04;;;;;;;0.55;0.40;;;;;;;14.13;45.67;94816.78;6155412;23;20010;-67
2021/04/14 08:51:37;;;;;;;0.40;0.40;;;;;;;14.13;45.98;94813.31;6133835;23;20567;-67
2021/04/14 08:54:02;;;;;;;0.43;0.43;;;;;;;14.13;45.62;94810.69;6106841;23;20012;-67
2021/04/14 08:56:28;;;;;;;0.47;0.47;;;;;;;14.14;45.95;94812.34;6106117;23;20001;-66
2021/04/14 08:58:55;;;;;;;1.33;0.60;;;;;;;14.13;45.56;94808.91;6155877;23;20085;-67
2021/04/14 09:01:21;;;;;;;1.15;0.60;;;;;;;14.12;45.73;94809.88;6081565;23;20009;-66
2021/04/14 09:03:47;;;;;;;0.85;0.70;;;;;;;14.13;45.92;94823.84;6106720;23;20042;-67
2021/04/14 09:06:13;;;;;;;1.38;0.70;;;;;;;14.13;45.82;94813.31;6104670;23;20009;-67
2021/04/14 09:08:48;;;;;;;0.35;0.35;;;;;;;14.18;45.29;94813.59;6105162;23;20002;-66
2021/04/14 09:11:30;;;;;;;0.40;0.40;;;;;;;14.17;45.27;94818.06;6108523;23;20005;-66
2021/04/14 09:14:07;;;;;;;0.70;0.70;;;;;;;14.17;45.83;94822.50;6082680;23;20415;-66
2021/04/14 09:16:54;;;;;;;0.43;0.43;;;;;;;14.15;45.82;94816.59;6083352;23;20072;-67
2021/04/14 09:19:36;;;;;;;0.40;0.40;;;;;;;14.14;45.89;94815.81;6085161;23;20014;-66
2021/04/14 09:22:32;;;;;;;0.40;0.40;;;;;;;14.15;45.68;94806.06;6103660;23;20005;-65
2021/04/14 09:25:09;;;;;;;1.17;0.50;;;;;;;14.13;45.99;94808.91;6013417;23;20334;-66
2021/04/14 09:27:37;;;;;;;0.32;0.32;;;;;;;14.14;45.90;94810.53;6037400;23;20014;-67
2021/04/14 09:30:14;;;;;;;0.52;0.50;;;;;;;14.13;45.93;94808.91;6037088;23;20441;-65
2021/04/14 09:32:50;;;;;;;1.45;0.70;;;;;;;14.14;45.71;94807.06;6036427;23;20378;-66
2021/04/14 09:35:37;;;;;;;0.45;0.40;;;;;;;14.15;45.91;94816.59;6036849;23;20143;-66
2021/04/14 09:38:15;;;;;;;0.50;0.50;;;;;;;14.14;45.60;94817.59;6037085;23;20074;-65
2021/04/14 09:40:43;;;;;;;0.50;0.43;;;;;;;14.14;45.65;94809.69;6037547;23;20018;-67
2021/04/14 09:43:25;;;;;;;0.38;0.38;;;;;;;14.14;45.29;94809.69;6037022;23;20090;-67
2021/04/14 09:46:46;;;;;;;0.82;0.60;;;;;;;14.14;45.84;94809.69;6036402;23;20051;-66
2021/04/14 09:49:36;;;;;;;0.50;0.50;;;;;;;14.13;45.64;94808.06;5956818;24;20107;-67
2021/04/14 09:52:03;;;;;;;0.40;0.40;;;;;;;14.14;45.57;94804.44;5957820;24;20043;-64
2021/04/14 09:54:31;;;;;;;0.52;0.52;;;;;;;14.13;45.46;94808.06;5955580;24;20015;-66
2021/04/14 09:57:06;;;;;;;0.40;0.40;;;;;;;14.14;45.68;94809.69;5958094;24;20015;-67
2021/04/14 09:59:39;;;;;;;0.50;0.50;;;;;;;14.13;45.44;94808.91;5958110;24;20023;-67
2021/04/14 10:02:20;;;;;;;1.23;0.55;;;;;;;14.14;45.14;94807.06;5957761;24;20008;-67
2021/04/14 10:04:55;;;;;;;0.30;0.30;;;;;;;14.14;45.48;94800.00;5912960;24;20015;-66
2021/04/14 10:07:31;;;;;;;2.50;0.60;;;;;;;14.14;45.41;94801.81;5911250;24;20019;-67
2021/04/14 10:10:18;;;;;;;0.50;0.50;;;;;;;14.14;45.77;94804.44;5912975;24;20419;-66
2021/04/14 10:12:43;;;;;;;0.63;0.63;;;;;;;14.14;45.83;94800.00;5957651;24;20358;-67
2021/04/14 10:15:10;;;;;;;0.57;0.52;;;;;;;14.15;45.35;94798.19;5934248;24;20020;-67
2021/04/14 10:17:38;;;;;;;1.05;0.43;;;;;;;14.16;45.53;94800.63;5911376;24;20021;-67
2021/04/14 10:20:21;;;;;;;0.45;0.43;;;;;;;14.16;45.38;94794.56;5933696;24;20016;-66
2021/04/14 10:22:49;;;;;;;0.50;0.50;;;;;;;14.15;45.78;94791.09;5957888;24;20012;-66
2021/04/14 10:25:20;;;;;;;0.40;0.40;;;;;;;14.17;45.41;94790.91;5985538;23;20097;-66
2021/04/14 10:27:46;;;;;;;0.50;0.50;;;;;;;14.16;45.42;94790.09;6100336;23;20447;-66
2021/04/14 10:30:17;;;;;;;0.40;0.40;;;;;;;14.16;45.37;94782.22;6076320;23;20010;-66
2021/04/14 10:33:04;;;;;;;0.85;0.60;;;;;;;14.17;45.72;94780.38;6076045;23;20002;-66
2021/04/14 10:35:30;;;;;;;0.65;0.43;;;;;;;14.17;45.71;94780.38;6100194;23;20001;-66
2021/04/14 10:37:55;;;;;;;0.55;0.55;;;;;;;14.16;45.34;94774.31;6099745;23;20012;-66
2021/04/14 10:40:25;;;;;;;0.40;0.40;;;;;;;14.17;45.68;94785.66;6075766;23;20010;-66
2021/04/14 10:42:51;;;;;;;0.35;0.35;;;;;;;14.17;45.69;94780.38;6099166;23;20403;-66
2021/04/14 10:45:23;;;;;;;0.73;0.43;;;;;;;14.16;45.74;94773.50;6076163;23;20006;-66
2021/04/14 10:47:54;;;;;;;0.45;0.45;;;;;;;14.16;45.41;94762.97;6100883;23;20006;-66
2021/04/14 10:50:25;;;;;;;1.65;0.50;;;;;;;14.16;45.53;94763.78;6100885;23;20005;-66
2021/04/14 10:53:03;;;;;;;0.50;0.45;;;;;;;14.16;45.46;94760.34;6126037;23;20005;-66
2021/04/14 10:55:41;;;;;;;0.30;0.30;;;;;;;14.19;45.70;94759.97;6101325;23;20040;-66
2021/04/14 10:58:09;;;;;;;0.80;0.45;;;;;;;14.21;45.65;94759.81;6075977;23;20340;-66
2021/04/14 11:00:49;;;;;;;0.30;0.30;;;;;;;14.20;45.57;94753.72;6075692;23;20014;-66
2021/04/14 11:03:24;;;;;;;0.50;0.50;;;;;;;14.18;45.75;94756.56;6123343;23;19998;-66
2021/04/14 11:05:58;;;;;;;0.57;0.50;;;;;;;14.18;45.54;94756.56;6076319;23;20009;-66
2021/04/14 11:08:28;;;;;;;0.40;0.40;;;;;;;14.17;45.83;94751.44;6076951;23;20012;-66
2021/04/14 11:10:57;;;;;;;1.08;0.50;;;;;;;14.17;45.57;94754.91;6075574;23;20002;-66
2021/04/14 11:13:23;;;;;;;;;;;;;;;14.17;45.36;94746.16;6076741;23;20059;-65
2021/04/14 11:15:51;;;;;;;0.40;0.40;;;;;;;14.16;45.51;94740.09;6075026;23;19987;-67
2021/04/14 11:18:19;;;;;;;0.57;0.50;;;;;;;14.16;45.69;94744.56;6075485;23;20006;-66
2021/04/14 11:20:49;;;;;;;0.30;0.30;;;;;;;14.16;45.44;94740.09;6075502;23;20002;-66
2021/04/14 11:23:32;;;;;;;1.27;0.50;;;;;;;14.15;45.82;94738.47;6100992;23;20420;-66
2021/04/14 11:26:04;;;;;;;0.47;0.47;;;;;;;14.16;45.86;94742.75;6099599;23;20309;-66
2021/04/14 11:28:42;;;;;;;0.40;0.40;;;;;;;14.17;45.45;94736.47;6099325;23;20021;-66
2021/04/14 11:31:10;;;;;;;0.55;0.30;;;;;;;14.16;45.59;94740.09;6099138;23;20009;-67
2021/04/14 11:33:45;;;;;;;0.60;0.60;;;;;;;14.16;46.10;94734.03;6075592;23;20072;-66
2021/04/14 11:36:25;;;;;;;0.30;0.30;;;;;;;14.17;45.65;94735.66;6075322;23;20009;-66
2021/04/14 11:39:15;;;;;;;0.40;0.40;;;;;;;14.17;45.55;94743.53;6125722;23;20114;-66
2021/04/14 11:41:42;;;;;;;0.50;0.50;;;;;;;14.16;45.76;94731.41;6126004;23;20492;-66
2021/04/14 11:44:18;;;;;;;0.43;0.43;;;;;;;14.16;45.69;94726.94;6075934;23;20006;-67
2021/04/14 11:46:56;;;;;;;0.30;0.30;;;;;;;14.16;45.58;94726.13;6098722;23;20037;-66
2021/04/14 11:49:36;;;;;;;0.40;0.40;;;;;;;14.15;45.78;94722.66;6099710;23;20009;-66
2021/04/14 11:52:42;;;;;;;0.30;0.30;;;;;;;14.20;45.49;94737.94;6079062;23;20106;-63
2021/04/14 11:55:22;;;;;;;0.40;0.40;;;;;;;14.37;45.12;94729.88;6124278;23;20002;-62
2021/04/14 11:57:59;;;;;;;0.65;0.52;;;;;;;14.50;45.76;94732.69;6100590;23;20444;-63
2021/04/14 12:00:40;;;;;;;0.90;0.55;;;;;;;14.40;45.98;94729.50;6075809;23;20011;-67
2021/04/14 12:03:25;;;;;;;0.47;0.40;;;;;;;14.39;45.58;94733.13;6075533;23;20483;-63
2021/04/14 12:05:52;;;;;;;0.98;0.60;;;;;;;14.40;45.83;94740.03;6076553;23;20324;-67
2021/04/14 12:08:20;;;;;;;0.80;0.70;;;;;;;14.33;46.16;94738.13;6098869;23;20010;-67